Time;durP1;ratioP1;P1;durP2;ratioP2;P2;SDS_P1;SDS_P2;PMS_P1;PMS_P2;Temp;Humidity;BMP_temperature;BMP_pressure;BME280_temperature;BME280_humidity;BME280_pressure;Samples;Min_cycle;Max_cycle;Signal;HPM_P1;HPM_P2
2022/08/08 00:00:30;;;;;;;10.77;5.57;;;18.40;99.90;;;;;;5048698;28;20778;-72
2022/08/08 00:03:47;;;;;;;10.27;5.15;;;18.50;99.90;;;;;;5061226;28;20335;-74
2022/08/08 00:06:48;;;;;;;7.05;5.10;;;18.70;99.90;;;;;;5060114;28;20286;-71
2022/08/08 00:09:43;;;;;;;6.88;5.00;;;18.60;99.90;;;;;;5062510;28;20218;-71
2022/08/08 00:12:39;;;;;;;12.60;5.00;;;18.60;99.90;;;;;;5059194;28;20238;-72
2022/08/08 00:15:38;;;;;;;7.55;3.95;;;18.50;99.90;;;;;;5044472;28;20783;-73
2022/08/08 00:18:54;;;;;;;6.18;4.55;;;18.50;99.90;;;;;;5044645;28;20224;-74
2022/08/08 00:21:49;;;;;;;7.38;4.30;;;18.40;99.90;;;;;;5042831;28;20225;-74
2022/08/08 00:24:44;;;;;;;6.28;4.05;;;18.40;99.90;;;;;;5061145;28;20221;-72
2022/08/08 00:27:35;;;;;;;6.50;4.13;;;18.50;99.90;;;;;;5046961;28;20219;-74
2022/08/08 00:30:30;;;;;;;6.22;4.00;;;18.50;99.90;;;;;;5056737;28;20217;-74
2022/08/08 00:33:22;;;;;;;7.57;3.92;;;18.40;99.90;;;;;;5043537;28;20789;-74
2022/08/08 00:36:23;;;;;;;7.85;4.20;;;18.30;99.90;;;;;;5056108;28;20228;-73
2022/08/08 00:39:19;;;;;;;8.38;3.63;;;18.40;99.90;;;;;;5056697;28;20270;-74
2022/08/08 00:42:50;;;;;;;6.80;3.90;;;18.30;99.90;;;;;;5049329;28;20223;-73
2022/08/08 00:46:03;;;;;;;8.90;4.15;;;18.30;99.90;;;;;;5045950;28;20697;-74
2022/08/08 00:49:49;;;;;;;5.72;3.80;;;18.20;99.90;;;;;;5058729;28;20239;-73
2022/08/08 00:52:55;;;;;;;5.97;3.88;;;18.30;99.90;;;;;;5028060;28;22207;-73
2022/08/08 00:56:18;;;;;;;6.25;3.55;;;18.40;99.90;;;;;;5045059;28;20224;-73
2022/08/08 00:59:45;;;;;;;5.93;3.72;;;18.40;99.90;;;;;;5057109;28;20725;-73
2022/08/08 01:03:37;;;;;;;5.78;3.65;;;18.40;99.90;;;;;;5060864;28;20232;-72
2022/08/08 01:07:38;;;;;;;6.00;4.00;;;18.30;99.90;;;;;;5046768;28;20331;-73
2022/08/08 01:11:26;;;;;;;5.93;3.85;;;18.20;99.90;;;;;;5043736;28;20699;-72
2022/08/08 01:15:10;;;;;;;6.47;4.28;;;18.20;99.90;;;;;;4983311;28;20227;-74
2022/08/08 01:18:35;;;;;;;7.00;3.95;;;18.20;99.90;;;;;;5040640;28;20669;-74
2022/08/08 01:22:18;;;;;;;7.80;4.20;;;18.30;99.90;;;;;;5049491;28;20300;-73
2022/08/08 01:25:57;;;;;;;7.10;4.20;;;18.20;99.90;;;;;;5043668;28;20223;-74
2022/08/08 01:29:38;;;;;;;6.82;3.97;;;18.10;99.90;;;;;;5024294;28;20743;-74
2022/08/08 01:33:34;;;;;;;6.63;3.75;;;18.10;99.90;;;;;;5043831;28;20250;-74
2022/08/08 01:37:24;;;;;;;5.03;3.17;;;18.00;99.90;;;;;;5045781;28;20222;-73
2022/08/08 01:40:43;;;;;;;5.60;3.22;;;18.10;99.90;;;;;;5042413;28;20292;-73
2022/08/08 01:43:44;;;;;;;4.38;3.47;;;18.00;99.90;;;;;;5060968;28;20224;-73
2022/08/08 01:46:48;;;;;;;4.25;2.92;;;18.00;99.90;;;;;;5063535;28;20235;-72
2022/08/08 01:49:58;;;;;;;5.13;3.20;;;17.90;99.90;;;;;;5046538;28;20230;-72
2022/08/08 01:52:59;;;;;;;6.95;3.10;;;18.00;99.90;;;;;;5045562;28;20708;-73
2022/08/08 01:56:15;;;;;;;4.60;3.10;;;18.00;99.90;;;;;;5045868;28;20547;-73
2022/08/08 01:59:38;;;;;;;4.05;2.75;;;18.00;99.90;;;;;;5048748;28;20228;-74
2022/08/08 02:03:26;;;;;;;6.40;2.70;;;17.90;99.90;;;;;;5059133;28;20230;-75
2022/08/08 02:06:55;;;;;;;4.03;3.03;;;17.80;99.90;;;;;;5055603;28;20209;-74
2022/08/08 02:10:02;;;;;;;6.10;3.20;;;17.90;99.90;;;;;;5043116;28;20216;-75
2022/08/08 02:13:05;;;;;;;5.25;3.03;;;17.80;99.90;;;;;;5045574;28;20239;-75
2022/08/08 02:16:04;;;;;;;4.13;3.10;;;17.70;99.90;;;;;;5058636;28;20641;-75
2022/08/08 02:19:00;;;;;;;4.65;3.03;;;17.60;99.90;;;;;;5062235;28;20306;-73
2022/08/08 02:22:33;;;;;;;4.15;3.30;;;17.60;99.90;;;;;;5045973;28;20230;-74
2022/08/08 02:25:49;;;;;;;4.38;3.17;;;17.60;99.90;;;;;;5042107;28;20216;-75
2022/08/08 02:28:53;;;;;;;4.97;3.22;;;17.70;99.90;;;;;;5057088;28;20220;-74
2022/08/08 02:32:05;;;;;;;3.47;2.97;;;17.60;99.90;;;;;;5060501;28;20310;-75
2022/08/08 02:35:18;;;;;;;5.72;3.40;;;17.70;99.90;;;;;;5056966;28;20239;-74
2022/08/08 02:38:59;;;;;;;3.83;3.40;;;17.70;99.90;;;;;;5040858;28;21048;-74
2022/08/08 02:42:18;;;;;;;4.50;3.45;;;17.70;99.90;;;;;;5044092;28;20243;-75
2022/08/08 02:45:53;;;;;;;6.13;3.40;;;17.70;99.90;;;;;;5043693;28;20758;-74
2022/08/08 02:49:18;;;;;;;7.57;4.00;;;17.70;99.90;;;;;;5042548;28;20231;-75
2022/08/08 02:52:58;;;;;;;5.10;3.80;;;17.70;99.90;;;;;;5040388;28;20566;-73
2022/08/08 02:56:25;;;;;;;8.20;3.67;;;17.80;99.90;;;;;;5036890;28;20220;-74
2022/08/08 02:59:55;;;;;;;5.68;3.58;;;17.80;99.90;;;;;;5057038;28;20223;-73
2022/08/08 03:03:59;;;;;;;6.25;3.67;;;17.80;99.90;;;;;;5042815;28;20346;-73
2022/08/08 03:07:41;;;;;;;5.60;3.25;;;17.80;99.90;;;;;;5038714;28;20255;-72
2022/08/08 03:11:23;;;;;;;8.77;4.00;;;17.60;99.90;;;;;;5042662;28;20696;-72
2022/08/08 03:14:55;;;;;;;5.05;3.35;;;17.70;99.90;;;;;;5042111;28;20432;-72
2022/08/08 03:18:13;;;;;;;6.55;3.35;;;17.60;99.90;;;;;;5055057;28;20251;-72
2022/08/08 03:21:04;;;;;;;6.43;2.78;;;17.50;99.90;;;;;;5043421;28;20258;-72
2022/08/08 03:24:03;;;;;;;4.80;3.40;;;17.40;99.90;;;;;;5044017;28;20586;-72
2022/08/08 03:26:56;;;;;;;4.97;3.00;;;17.50;99.90;;;;;;5043720;28;20236;-74
2022/08/08 03:29:52;;;;;;;5.63;3.40;;;17.60;99.90;;;;;;5047176;28;20319;-73
2022/08/08 03:36:19;;;;;;;8.25;3.35;;;17.50;99.90;;;;;;5045621;28;20250;-72
2022/08/08 03:39:20;;;;;;;8.85;3.40;;;17.50;99.90;;;;;;5061166;28;20249;-72
2022/08/08 03:42:15;;;;;;;4.78;3.08;;;17.50;99.90;;;;;;5049091;28;20216;-74
2022/08/08 03:45:25;;;;;;;6.10;3.50;;;17.60;99.90;;;;;;5042937;28;20365;-73
2022/08/08 03:48:34;;;;;;;5.68;3.13;;;17.60;99.90;;;;;;5045930;28;20600;-74
2022/08/08 03:51:46;;;;;;;4.90;2.92;;;17.30;99.90;;;;;;5044943;28;20212;-75
2022/08/08 03:54:44;;;;;;;4.38;3.25;;;17.40;99.90;;;;;;5064632;28;20520;-74
2022/08/08 03:57:56;;;;;;;5.53;3.22;;;17.50;99.90;;;;;;5055724;28;20262;-74
2022/08/08 04:01:05;;;;;;;6.47;3.50;;;17.50;99.90;;;;;;5051148;28;20238;-74
2022/08/08 04:04:19;;;;;;;5.82;3.50;;;17.50;99.90;;;;;;5051246;28;20229;-71
2022/08/08 04:07:18;;;;;;;7.15;3.40;;;17.60;99.90;;;;;;5049040;28;20216;-73
2022/08/08 04:10:10;;;;;;;7.28;3.80;;;17.50;99.90;;;;;;5062629;28;20243;-74
2022/08/08 04:13:00;;;;;;;6.13;3.67;;;17.50;99.90;;;;;;5062651;28;20224;-74
2022/08/08 04:16:06;;;;;;;7.65;4.25;;;17.70;99.90;;;;;;5044499;28;20220;-75
2022/08/08 04:19:03;;;;;;;7.47;4.60;;;17.60;99.90;;;;;;5045643;28;20228;-74
2022/08/08 04:22:12;;;;;;;7.53;3.83;;;17.60;99.90;;;;;;5042900;28;20231;-71
2022/08/08 04:25:05;;;;;;;7.38;3.88;;;17.70;99.90;;;;;;5054925;28;20220;-71
2022/08/08 04:27:57;;;;;;;6.65;4.00;;;17.70;99.90;;;;;;5060113;28;20751;-73
2022/08/08 04:31:06;;;;;;;7.30;3.38;;;17.70;99.90;;;;;;5060080;28;20227;-75
2022/08/08 04:33:57;;;;;;;5.90;3.90;;;17.80;99.90;;;;;;5045925;28;20217;-74
2022/08/08 04:36:45;;;;;;;9.77;3.97;;;18.00;99.90;;;;;;5039735;28;20558;-74
2022/08/08 04:39:35;;;;;;;6.90;3.95;;;18.10;99.90;;;;;;5064032;28;20699;-74
2022/08/08 04:42:44;;;;;;;7.82;3.83;;;18.10;99.90;;;;;;5045030;28;20703;-75
2022/08/08 04:45:49;;;;;;;6.10;3.58;;;18.20;99.90;;;;;;5055282;28;20349;-75
2022/08/08 04:48:38;;;;;;;5.38;3.75;;;18.20;99.90;;;;;;5059004;28;20224;-74
2022/08/08 04:51:27;;;;;;;9.25;3.70;;;18.40;99.90;;;;;;5053896;28;20219;-72
2022/08/08 04:54:36;;;;;;;6.55;3.35;;;18.40;99.90;;;;;;5048643;28;20226;-71
2022/08/08 04:57:30;;;;;;;6.03;3.47;;;18.50;99.90;;;;;;5041479;28;20233;-73
2022/08/08 05:00:23;;;;;;;10.23;3.35;;;18.70;99.90;;;;;;5059167;28;20224;-71
2022/08/08 05:03:15;;;;;;;6.10;3.50;;;18.80;99.90;;;;;;5044975;28;20220;-73
2022/08/08 05:06:24;;;;;;;3.95;3.53;;;18.80;99.90;;;;;;5058023;28;20606;-73
2022/08/08 05:09:17;;;;;;;5.03;3.05;;;18.80;99.90;;;;;;5063523;28;20212;-73
2022/08/08 05:12:07;;;;;;;5.15;3.58;;;19.00;99.90;;;;;;5057411;28;20243;-74
2022/08/08 05:15:09;;;;;;;7.00;3.63;;;19.10;99.90;;;;;;5058611;28;20227;-73
2022/08/08 05:18:01;;;;;;;5.35;3.13;;;19.20;99.90;;;;;;5062795;28;20216;-73
2022/08/08 05:20:51;;;;;;;4.70;3.00;;;19.00;99.90;;;;;;5055763;28;20224;-72
2022/08/08 05:23:41;;;;;;;4.32;3.10;;;19.20;99.90;;;;;;5057239;28;20224;-73
2022/08/08 05:26:38;;;;;;;5.18;3.15;;;19.40;99.90;;;;;;5057213;28;20300;-74
2022/08/08 05:29:27;;;;;;;3.63;2.53;;;19.60;99.90;;;;;;5054391;28;21160;-73
2022/08/08 05:32:21;;;;;;;3.58;2.33;;;19.50;99.90;;;;;;5044521;28;20255;-73
2022/08/08 05:35:21;;;;;;;4.30;2.67;;;19.70;99.90;;;;;;5044084;28;20224;-73
2022/08/08 05:38:17;;;;;;;4.15;2.63;;;19.80;99.90;;;;;;5043739;28;20212;-73
2022/08/08 05:41:26;;;;;;;7.15;2.60;;;20.00;99.90;;;;;;5044103;28;20223;-72
2022/08/08 05:44:20;;;;;;;6.65;2.55;;;20.10;99.90;;;;;;5045109;28;20330;-72
2022/08/08 05:47:20;;;;;;;4.32;2.38;;;20.00;99.90;;;;;;5048194;28;20234;-72
2022/08/08 05:50:10;;;;;;;7.85;3.35;;;19.80;99.90;;;;;;5044042;28;21601;-73
2022/08/08 05:52:59;;;;;;;6.25;2.70;;;19.90;99.90;;;;;;5048232;28;20957;-73
2022/08/08 05:56:14;;;;;;;5.97;2.50;;;20.20;99.90;;;;;;5040662;28;21030;-76
2022/08/08 05:59:08;;;;;;;4.60;2.47;;;20.40;99.90;;;;;;5039520;28;20228;-72
2022/08/08 06:02:03;;;;;;;8.80;3.05;;;20.50;99.90;;;;;;5042278;28;20241;-74
2022/08/08 06:04:58;;;;;;;4.43;2.92;;;20.70;99.90;;;;;;5054178;28;20235;-73
2022/08/08 06:07:49;;;;;;;5.50;2.15;;;21.90;99.90;;;;;;5027192;28;20699;-75
2022/08/08 06:10:39;;;;;;;5.35;2.72;;;23.10;99.90;;;;;;5056664;28;20653;-73
2022/08/08 06:13:32;;;;;;;6.18;2.67;;;25.40;99.90;;;;;;5042876;28;20354;-73
2022/08/08 06:16:32;;;;;;;10.32;2.58;;;26.30;99.90;;;;;;5066892;28;20871;-73
2022/08/08 06:19:26;;;;;;;7.45;3.03;;;26.60;96.50;;;;;;5042566;28;20229;-73
2022/08/08 06:22:21;;;;;;;6.30;2.60;;;25.30;97.60;;;;;;5043447;28;20420;-73
2022/08/08 06:25:36;;;;;;;5.70;2.70;;;23.90;99.90;;;;;;5039681;28;20630;-74
2022/08/08 06:28:52;;;;;;;5.22;2.30;;;22.90;99.90;;;;;;5037771;28;20219;-73
2022/08/08 06:31:43;;;;;;;7.53;2.80;;;22.40;99.90;;;;;;5040039;28;20223;-76
2022/08/08 06:34:55;;;;;;;6.45;2.50;;;22.00;99.90;;;;;;5040043;28;20503;-80
2022/08/08 06:38:11;;;;;;;5.97;2.50;;;21.90;99.90;;;;;;5057298;28;20207;-78
2022/08/08 06:41:11;;;;;;;7.38;2.00;;;22.10;99.90;;;;;;5042859;28;20307;-78
2022/08/08 06:44:04;;;;;;;4.68;2.22;;;22.90;99.90;;;;;;5055673;28;20221;-81
2022/08/08 06:47:00;;;;;;;4.03;1.98;;;24.00;99.90;;;;;;5044700;28;20235;-81
2022/08/08 06:49:51;;;;;;;6.25;1.95;;;23.60;99.90;;;;;;5054106;28;20221;-79
2022/08/08 06:52:46;;;;;;;5.97;2.25;;;23.30;99.90;;;;;;5048737;28;20224;-80
2022/08/08 06:55:39;;;;;;;5.20;1.95;;;23.00;99.90;;;;;;5038294;28;20294;-81
2022/08/08 06:58:30;;;;;;;6.32;1.77;;;22.70;99.90;;;;;;5040896;28;20227;-79
2022/08/08 07:01:24;;;;;;;3.13;1.80;;;22.60;99.90;;;;;;5039959;28;20228;-80
2022/08/08 07:04:45;;;;;;;4.45;1.63;;;22.50;99.90;;;;;;5056196;28;20216;-80
2022/08/08 07:07:59;;;;;;;4.38;2.00;;;22.50;99.90;;;;;;5043169;28;20216;-81
2022/08/08 07:10:57;;;;;;;6.07;2.08;;;22.70;99.90;;;;;;5043292;28;20252;-79
2022/08/08 07:13:53;;;;;;;5.25;1.90;;;23.00;99.90;;;;;;5056092;28;20220;-80
2022/08/08 07:17:02;;;;;;;8.38;2.20;;;23.00;99.90;;;;;;5046125;28;21108;-80
2022/08/08 07:20:04;;;;;;;3.88;1.70;;;23.00;99.90;;;;;;5043872;28;20220;-81
2022/08/08 07:23:02;;;;;;;4.28;1.83;;;23.10;99.90;;;;;;5059790;28;20231;-81
2022/08/08 07:25:56;;;;;;;4.32;1.83;;;23.30;99.90;;;;;;5061762;28;20221;-78
2022/08/08 07:28:46;;;;;;;3.75;1.90;;;23.40;99.90;;;;;;5043382;28;20228;-79
2022/08/08 07:31:37;;;;;;;5.88;2.53;;;23.50;99.90;;;;;;5062014;28;20342;-85
2022/08/08 07:34:30;;;;;;;10.45;4.63;;;23.70;99.90;;;;;;5043844;28;20771;-84
2022/08/08 07:37:27;;;;;;;2.15;1.50;;;23.60;99.90;;;;;;5061188;28;20220;-84
2022/08/08 07:40:37;;;;;;;2.50;1.55;;;23.60;99.90;;;;;;5042165;28;20232;-81
2022/08/08 07:43:33;;;;;;;5.28;2.00;;;23.80;99.90;;;;;;5046983;28;20330;-86
2022/08/08 07:46:27;;;;;;;2.13;1.40;;;23.60;99.90;;;;;;5059923;28;20749;-87
2022/08/08 07:49:29;;;;;;;2.67;1.50;;;24.20;97.90;;;;;;5059755;28;20600;-84
2022/08/08 07:52:19;;;;;;;2.95;1.60;;;24.00;98.60;;;;;;5058439;28;20421;-83
2022/08/08 07:55:22;;;;;;;3.03;1.40;;;24.20;99.90;;;;;;5044527;28;20592;-81
2022/08/08 07:58:29;;;;;;;3.80;1.67;;;24.40;97.80;;;;;;5047655;28;20693;-79
2022/08/08 08:01:25;;;;;;;3.85;1.65;;;24.60;95.80;;;;;;5046127;28;20324;-80
2022/08/08 08:04:18;;;;;;;3.40;1.60;;;24.70;98.40;;;;;;5058884;28;20220;-80
2022/08/08 08:07:11;;;;;;;2.72;1.85;;;24.90;97.50;;;;;;5043289;28;20232;-79
2022/08/08 08:10:03;;;;;;;3.03;1.50;;;24.80;95.80;;;;;;5047272;28;20223;-81
2022/08/08 08:12:55;;;;;;;2.05;1.20;;;25.00;94.00;;;;;;5046825;28;20225;-80
2022/08/08 08:15:44;;;;;;;3.97;1.48;;;24.80;94.50;;;;;;5048534;28;20228;-80
2022/08/08 08:18:46;;;;;;;5.10;1.30;;;24.90;95.60;;;;;;5060715;28;20224;-80
2022/08/08 08:21:48;;;;;;;6.32;1.20;;;25.30;93.80;;;;;;5060843;28;20592;-80
2022/08/08 08:25:05;;;;;;;3.55;1.20;;;24.70;92.70;;;;;;5048940;28;20217;-82
2022/08/08 08:27:58;;;;;;;3.78;1.13;;;24.90;92.00;;;;;;5043536;28;20243;-80
2022/08/08 08:30:50;;;;;;;2.90;1.10;;;24.70;93.40;;;;;;5045810;28;20217;-80
2022/08/08 08:33:41;;;;;;;1.58;1.10;;;24.30;92.00;;;;;;5059629;28;20585;-80
2022/08/08 08:36:31;;;;;;;2.05;1.20;;;24.70;91.20;;;;;;5061954;28;20373;-80
2022/08/08 08:39:21;;;;;;;2.38;1.20;;;25.20;90.90;;;;;;5063011;28;20771;-81
2022/08/08 08:42:16;;;;;;;2.45;1.45;;;24.40;91.20;;;;;;5056555;28;20309;-81
2022/08/08 08:45:20;;;;;;;2.20;1.20;;;24.10;93.10;;;;;;5062355;28;20485;-80
2022/08/08 08:48:19;;;;;;;4.35;1.58;;;25.10;93.40;;;;;;5061156;28;20731;-80
2022/08/08 08:51:12;;;;;;;4.03;1.30;;;25.50;92.40;;;;;;5047308;28;20787;-81
2022/08/08 08:54:03;;;;;;;4.93;1.42;;;25.00;90.80;;;;;;5046787;28;20244;-81
2022/08/08 08:56:56;;;;;;;2.38;1.27;;;24.90;90.70;;;;;;5049460;28;20220;-80
2022/08/08 08:59:49;;;;;;;1.85;1.20;;;25.10;90.40;;;;;;5043439;28;20219;-80
2022/08/08 09:02:53;;;;;;;4.50;1.33;;;25.10;90.50;;;;;;5047066;28;20819;-80
2022/08/08 09:05:44;;;;;;;3.92;1.20;;;24.90;92.10;;;;;;5047222;28;20243;-80
2022/08/08 09:08:44;;;;;;;2.20;1.27;;;24.30;91.60;;;;;;5048362;28;20256;-80
2022/08/08 09:11:44;;;;;;;2.88;1.10;;;24.10;91.60;;;;;;5059138;28;20224;-79
2022/08/08 09:14:55;;;;;;;2.35;1.20;;;23.70;90.70;;;;;;5047878;28;20685;-80
2022/08/08 09:17:49;;;;;;;1.50;1.05;;;23.60;89.80;;;;;;5046423;28;20216;-79
2022/08/08 09:20:49;;;;;;;6.88;1.00;;;24.20;92.50;;;;;;5061878;28;20224;-79
2022/08/08 09:23:58;;;;;;;2.80;1.02;;;25.50;88.40;;;;;;5044343;28;20220;-80
2022/08/08 09:26:56;;;;;;;2.97;1.00;;;26.90;81.60;;;;;;5055696;28;20677;-82
2022/08/08 09:29:53;;;;;;;2.08;1.00;;;27.60;83.00;;;;;;5047276;28;20220;-82
2022/08/08 09:32:46;;;;;;;5.18;1.10;;;27.10;77.90;;;;;;5040524;28;20323;-79
2022/08/08 09:35:56;;;;;;;1.98;1.15;;;26.90;78.50;;;;;;5046418;28;20220;-81
2022/08/08 09:38:53;;;;;;;4.25;1.30;;;28.30;77.60;;;;;;5059640;28;20221;-81
2022/08/08 09:41:58;;;;;;;3.72;1.13;;;28.70;71.10;;;;;;5054657;28;20216;-80
2022/08/08 09:45:10;;;;;;;2.78;1.02;;;29.40;68.70;;;;;;5041463;28;20228;-80
2022/08/08 09:48:19;;;;;;;1.60;0.95;;;30.30;67.30;;;;;;5060812;28;20259;-83
2022/08/08 09:51:30;;;;;;;2.45;0.90;;;29.70;65.70;;;;;;5043529;28;20239;-84
2022/08/08 09:54:43;;;;;;;2.90;1.10;;;30.50;65.10;;;;;;5040901;28;20861;-80
2022/08/08 09:57:36;;;;;;;2.30;1.10;;;30.70;60.90;;;;;;5058094;28;20370;-80
2022/08/08 10:00:37;;;;;;;3.88;1.13;;;31.20;59.40;;;;;;5058788;28;20228;-82
2022/08/08 10:03:41;;;;;;;1.60;1.00;;;32.50;59.30;;;;;;5042945;28;20292;-81
2022/08/08 10:06:32;;;;;;;3.15;1.40;;;31.20;58.50;;;;;;5058156;28;20891;-81
2022/08/08 10:09:32;;;;;;;1.83;1.10;;;32.50;58.70;;;;;;5056255;28;20315;-80
2022/08/08 10:12:41;;;;;;;3.80;1.33;;;33.00;55.20;;;;;;5038909;28;20604;-81
2022/08/08 10:15:46;;;;;;;2.15;1.15;;;32.10;54.20;;;;;;5063775;28;20998;-81
2022/08/08 10:18:49;;;;;;;1.73;1.20;;;31.00;56.60;;;;;;5059231;28;20240;-76
2022/08/08 10:21:49;;;;;;;3.58;1.20;;;30.80;56.90;;;;;;5059584;28;20247;-71
2022/08/08 10:24:46;;;;;;;2.40;1.23;;;30.80;56.80;;;;;;5043215;28;20215;-80
2022/08/08 10:27:41;;;;;;;1.85;1.10;;;31.20;56.10;;;;;;5055946;28;20239;-80
2022/08/08 10:30:30;;;;;;;4.53;1.60;;;30.30;54.50;;;;;;5051553;28;20983;-78
2022/08/08 10:33:41;;;;;;;2.45;1.20;;;30.90;56.90;;;;;;5055135;28;20226;-82
2022/08/08 10:36:50;;;;;;;2.00;1.20;;;33.50;55.80;;;;;;5059090;28;20302;-81
2022/08/08 10:39:45;;;;;;;2.22;0.93;;;34.90;52.30;;;;;;5050538;28;20270;-80
2022/08/08 10:42:43;;;;;;;2.85;1.23;;;34.50;53.00;;;;;;5048778;28;20322;-79
2022/08/08 10:45:42;;;;;;;2.33;1.20;;;33.70;53.30;;;;;;5049733;28;20681;-79
2022/08/08 10:48:47;;;;;;;2.78;1.33;;;34.60;50.70;;;;;;5040813;28;20239;-77
2022/08/08 10:51:46;;;;;;;2.72;1.17;;;33.40;50.80;;;;;;5042140;28;20333;-77
2022/08/08 10:54:39;;;;;;;2.90;1.40;;;34.90;51.10;;;;;;5058755;28;20219;-78
2022/08/08 10:57:30;;;;;;;1.67;0.90;;;35.70;49.50;;;;;;5051956;28;20230;-79
2022/08/08 11:00:46;;;;;;;3.75;0.88;;;36.10;46.60;;;;;;5047285;28;20772;-78
2022/08/08 11:03:51;;;;;;;1.92;0.95;;;35.80;44.30;;;;;;5052243;28;20220;-85
2022/08/08 11:06:59;;;;;;;2.03;1.00;;;36.40;46.20;;;;;;5053137;28;20224;-86
2022/08/08 11:09:48;;;;;;;1.67;0.90;;;37.40;44.50;;;;;;5057577;28;20227;-86
2022/08/08 11:12:46;;;;;;;7.03;1.30;;;38.30;45.90;;;;;;5055244;28;20276;-83
2022/08/08 11:15:49;;;;;;;2.67;1.30;;;38.30;46.40;;;;;;5047504;28;20684;-84
2022/08/08 11:18:51;;;;;;;2.22;1.17;;;37.20;44.30;;;;;;5043794;28;20254;-85
2022/08/08 11:21:44;;;;;;;0.93;0.85;;;37.50;45.50;;;;;;5055902;28;20222;-84
2022/08/08 11:24:46;;;;;;;2.35;1.13;;;37.80;46.40;;;;;;5055777;28;20215;-84
2022/08/08 11:27:37;;;;;;;3.30;1.30;;;38.00;43.40;;;;;;5053627;28;20234;-84
2022/08/08 11:30:33;;;;;;;1.60;0.95;;;38.30;45.00;;;;;;5059895;28;20257;-85
2022/08/08 11:33:28;;;;;;;3.90;0.98;;;37.70;41.60;;;;;;5044843;28;20744;-89
2022/08/08 11:36:39;;;;;;;2.28;0.90;;;38.40;40.20;;;;;;5047446;28;20219;-87
2022/08/08 11:39:31;;;;;;;4.18;1.13;;;37.90;41.30;;;;;;5058997;28;20227;-88
2022/08/08 11:42:25;;;;;;;4.30;1.00;;;35.20;43.10;;;;;;5057947;28;20257;-87
2022/08/08 11:45:22;;;;;;;2.33;1.08;;;37.50;44.20;;;;;;5054495;28;20250;-78
2022/08/08 11:48:11;;;;;;;2.40;1.10;;;39.00;42.80;;;;;;5053884;28;20300;-79
2022/08/08 11:51:09;;;;;;;1.63;1.05;;;39.70;41.60;;;;;;5055992;28;20215;-79
2022/08/08 11:54:29;;;;;;;5.88;1.20;;;41.20;40.70;;;;;;5058669;28;20224;-79
2022/08/08 11:57:22;;;;;;;1.52;0.95;;;40.80;39.70;;;;;;5053726;28;20246;-76
2022/08/08 12:00:17;;;;;;;2.40;1.17;;;41.50;38.20;;;;;;5050045;28;20230;-77
2022/08/08 12:03:15;;;;;;;1.55;0.90;;;41.00;38.20;;;;;;5040233;28;20216;-79
2022/08/08 12:06:12;;;;;;;1.33;1.00;;;36.20;39.90;;;;;;5045193;28;20305;-79
2022/08/08 12:09:06;;;;;;;2.08;0.90;;;34.10;43.50;;;;;;5058241;28;20215;-79
2022/08/08 12:11:56;;;;;;;1.67;0.80;;;32.60;45.80;;;;;;5043499;28;20647;-78
2022/08/08 12:14:45;;;;;;;2.30;1.17;;;31.00;47.40;;;;;;5054591;28;20260;-79
2022/08/08 12:17:42;;;;;;;18.00;2.00;;;30.60;48.80;;;;;;5062000;28;20226;-77
2022/08/08 12:20:40;;;;;;;4.35;1.13;;;30.10;51.40;;;;;;5054858;28;20216;-80
2022/08/08 12:23:30;;;;;;;4.38;1.48;;;29.00;52.30;;;;;;5051841;28;20224;-82
2022/08/08 12:26:40;;;;;;;3.75;1.10;;;28.90;53.20;;;;;;5057407;28;20266;-83
2022/08/08 12:29:37;;;;;;;1.83;1.00;;;28.70;53.60;;;;;;5058049;28;20219;-82
2022/08/08 12:32:41;;;;;;;5.03;1.38;;;29.40;54.50;;;;;;5045463;28;21320;-84
2022/08/08 12:35:39;;;;;;;4.00;1.40;;;30.70;53.60;;;;;;5058325;28;20211;-82
2022/08/08 12:38:47;;;;;;;2.45;1.30;;;29.30;52.30;;;;;;5059738;28;20216;-83
2022/08/08 12:41:36;;;;;;;2.85;1.08;;;28.90;55.00;;;;;;5064652;28;20298;-83
2022/08/08 12:44:47;;;;;;;3.55;1.27;;;28.50;55.90;;;;;;5041466;28;20212;-81
2022/08/08 12:47:37;;;;;;;3.08;1.20;;;28.30;55.70;;;;;;5041972;28;20303;-82
2022/08/08 12:50:48;;;;;;;2.58;1.10;;;27.50;55.50;;;;;;5057914;28;21183;-81
2022/08/08 12:53:44;;;;;;;1.25;0.95;;;27.60;56.20;;;;;;5057577;28;20331;-85
2022/08/08 12:56:35;;;;;;;1.77;1.00;;;27.60;55.80;;;;;;5046895;28;20339;-84
2022/08/08 12:59:27;;;;;;;4.32;1.10;;;27.80;56.60;;;;;;5048680;28;20585;-84
2022/08/08 13:02:35;;;;;;;1.98;1.20;;;27.90;56.70;;;;;;5058088;28;20212;-84
2022/08/08 13:05:29;;;;;;;3.08;1.35;;;27.70;57.00;;;;;;5043096;28;20223;-83
2022/08/08 13:08:41;;;;;;;1.98;1.25;;;27.50;58.00;;;;;;5054088;28;20223;-81
2022/08/08 13:11:53;;;;;;;3.30;1.30;;;26.90;58.30;;;;;;5044112;28;20647;-80
2022/08/08 13:15:05;;;;;;;3.55;1.13;;;27.00;58.00;;;;;;5058254;28;20228;-80
2022/08/08 13:17:55;;;;;;;1.35;1.02;;;27.00;58.10;;;;;;5048283;28;20294;-80
2022/08/08 13:20:59;;;;;;;2.65;1.67;;;26.90;57.70;;;;;;5046639;28;20216;-81
2022/08/08 13:23:50;;;;;;;2.20;1.30;;;27.00;58.50;;;;;;5043364;28;20635;-85
2022/08/08 13:26:43;;;;;;;2.92;1.10;;;27.00;59.20;;;;;;5058881;28;20224;-82
2022/08/08 13:29:32;;;;;;;1.70;1.10;;;26.70;57.80;;;;;;5052985;28;20230;-86
2022/08/08 13:32:34;;;;;;;1.58;1.08;;;26.90;58.60;;;;;;5057225;28;20223;-84
2022/08/08 13:35:26;;;;;;;1.42;1.10;;;27.30;59.30;;;;;;5043317;28;20216;-80
2022/08/08 13:38:26;;;;;;;2.15;1.10;;;26.90;58.50;;;;;;5056644;28;20358;-80
2022/08/08 13:41:16;;;;;;;3.78;1.20;;;26.60;57.70;;;;;;5058236;28;20229;-78
2022/08/08 13:44:09;;;;;;;2.72;1.27;;;26.60;58.00;;;;;;5057850;28;20219;-79
2022/08/08 13:47:01;;;;;;;2.65;1.40;;;26.60;59.30;;;;;;5061640;28;20230;-82
2022/08/08 13:49:57;;;;;;;2.25;1.35;;;26.60;58.20;;;;;;5056547;28;20220;-82
2022/08/08 13:53:07;;;;;;;1.75;1.20;;;26.90;59.00;;;;;;5040916;28;20221;-85
2022/08/08 13:56:12;;;;;;;2.75;1.10;;;26.40;58.70;;;;;;5056359;28;20212;-80
2022/08/08 13:59:02;;;;;;;2.08;1.30;;;26.20;59.40;;;;;;5058294;28;20901;-84
2022/08/08 14:01:55;;;;;;;2.72;1.10;;;26.30;60.90;;;;;;5056159;28;20309;-85
2022/08/08 14:04:56;;;;;;;1.45;1.05;;;26.30;60.30;;;;;;5057915;28;20242;-84
2022/08/08 14:07:56;;;;;;;1.77;1.00;;;26.30;60.90;;;;;;5058758;28;20212;-84
2022/08/08 14:11:05;;;;;;;3.05;1.27;;;26.70;60.10;;;;;;5045637;28;20284;-84
2022/08/08 14:14:00;;;;;;;3.17;1.17;;;26.50;61.00;;;;;;5047460;28;20224;-84
2022/08/08 14:16:56;;;;;;;1.65;1.00;;;26.30;61.20;;;;;;5048382;28;20224;-84
2022/08/08 14:19:48;;;;;;;2.25;1.17;;;25.90;63.50;;;;;;5056647;28;20223;-84
2022/08/08 14:22:50;;;;;;;1.92;1.08;;;26.00;61.60;;;;;;5042106;28;20569;-84
2022/08/08 14:25:45;;;;;;;4.78;1.02;;;25.70;62.30;;;;;;5065259;28;20216;-84
2022/08/08 14:28:52;;;;;;;1.83;1.23;;;25.70;63.50;;;;;;5061424;28;20309;-84
2022/08/08 14:31:48;;;;;;;2.63;1.27;;;25.70;63.40;;;;;;5061334;28;20265;-84
2022/08/08 14:35:03;;;;;;;2.47;1.20;;;25.50;63.20;;;;;;5045448;28;20228;-84
2022/08/08 14:37:52;;;;;;;2.95;1.10;;;25.70;64.10;;;;;;5044923;28;20285;-84
2022/08/08 14:40:50;;;;;;;3.10;1.30;;;25.50;63.30;;;;;;5058384;28;20331;-84
2022/08/08 14:43:48;;;;;;;3.08;1.20;;;25.30;63.00;;;;;;5056453;28;20235;-84
2022/08/08 14:46:59;;;;;;;4.30;1.10;;;25.00;64.50;;;;;;5044044;28;20870;-84
2022/08/08 14:49:48;;;;;;;3.17;1.50;;;25.20;65.00;;;;;;5043345;28;20494;-86
2022/08/08 14:52:59;;;;;;;2.17;1.38;;;25.20;65.60;;;;;;5048731;28;20216;-84
2022/08/08 14:55:48;;;;;;;4.68;1.30;;;25.20;65.40;;;;;;5047653;28;20223;-84
2022/08/08 14:58:49;;;;;;;2.25;1.17;;;25.20;66.00;;;;;;5049270;28;20224;-84
2022/08/08 15:01:38;;;;;;;4.63;1.40;;;25.10;65.10;;;;;;5055765;28;20637;-84
2022/08/08 15:04:30;;;;;;;2.60;1.05;;;25.10;65.50;;;;;;5049093;28;20261;-84
2022/08/08 15:07:20;;;;;;;6.65;1.13;;;25.10;65.80;;;;;;5043728;28;20227;-84
2022/08/08 15:10:26;;;;;;;2.03;1.17;;;25.00;66.30;;;;;;5061068;28;20236;-83
2022/08/08 15:13:16;;;;;;;2.58;1.25;;;25.00;66.20;;;;;;5058655;28;20220;-84
2022/08/08 15:16:08;;;;;;;2.63;1.15;;;25.00;66.20;;;;;;5044661;28;20224;-83
2022/08/08 15:19:03;;;;;;;2.83;1.20;;;25.00;67.50;;;;;;5055219;28;20220;-84
2022/08/08 15:21:53;;;;;;;4.22;1.30;;;25.00;68.50;;;;;;5059259;28;20247;-84
2022/08/08 15:24:42;;;;;;;3.38;1.20;;;24.70;67.70;;;;;;5062282;28;20223;-83
2022/08/08 15:27:38;;;;;;;4.18;1.40;;;24.60;68.00;;;;;;5051138;28;20242;-83
2022/08/08 15:30:47;;;;;;;3.28;1.20;;;24.70;68.50;;;;;;5063697;28;20280;-84
2022/08/08 15:33:37;;;;;;;4.38;1.60;;;24.70;67.80;;;;;;5063019;28;20217;-84
2022/08/08 15:36:46;;;;;;;3.78;1.10;;;24.90;67.40;;;;;;5044638;28;20216;-81
2022/08/08 15:39:38;;;;;;;2.97;1.10;;;25.00;67.90;;;;;;5062869;28;20217;-84
2022/08/08 15:42:27;;;;;;;2.53;1.13;;;25.10;67.80;;;;;;5064591;28;20759;-84
2022/08/08 15:45:20;;;;;;;1.30;1.05;;;25.10;67.90;;;;;;5048925;28;20231;-84
2022/08/08 15:48:10;;;;;;;1.50;1.20;;;25.10;68.20;;;;;;5048904;28;20228;-83
2022/08/08 15:51:05;;;;;;;1.55;1.30;;;24.90;67.80;;;;;;5049766;28;20228;-84